createdAt,value
2023-08-22T00:01:37.606Z,8.00
2023-08-22T00:04:06.366Z,7.90
2023-08-22T00:06:35.279Z,8.50
2023-08-22T00:09:05.219Z,8.30
2023-08-22T00:11:34.348Z,8.20
2023-08-22T00:14:03.213Z,7.90
2023-08-22T00:16:32.863Z,8.00
2023-08-22T00:19:01.974Z,7.90
2023-08-22T00:21:31.326Z,7.60
2023-08-22T00:24:00.328Z,7.60
2023-08-22T00:26:29.077Z,7.50
2023-08-22T00:28:59.145Z,8.90
2023-08-22T00:31:28.127Z,8.40
2023-08-22T00:34:01.343Z,7.90
2023-08-22T00:36:30.239Z,7.30
2023-08-22T00:38:59.315Z,7.10
2023-08-22T00:41:28.311Z,7.20
2023-08-22T00:43:57.254Z,6.60
2023-08-22T00:46:29.539Z,5.80
2023-08-22T00:48:59.185Z,6.20
2023-08-22T00:51:28.254Z,6.30
2023-08-22T00:53:57.552Z,6.80
2023-08-22T00:56:26.453Z,6.70
2023-08-22T00:58:55.249Z,9.70
2023-08-22T01:01:24.296Z,10.00
2023-08-22T01:03:53.376Z,9.00
2023-08-22T01:06:31.950Z,8.10
2023-08-22T01:09:05.850Z,8.00
2023-08-22T01:11:40.698Z,8.50
2023-08-22T01:14:14.452Z,7.40
2023-08-22T01:16:43.734Z,10.50
2023-08-22T01:19:13.858Z,9.10
2023-08-22T01:21:49.588Z,8.90
2023-08-22T01:24:18.521Z,9.20
2023-08-22T01:26:48.894Z,9.10
2023-08-22T01:29:27.440Z,8.90
2023-08-22T01:32:05.658Z,8.40
2023-08-22T01:34:39.388Z,9.00
2023-08-22T01:37:10.375Z,9.80
2023-08-22T01:39:39.877Z,9.30
2023-08-22T01:42:09.366Z,9.50
2023-08-22T01:44:39.176Z,10.10
2023-08-22T01:47:09.562Z,9.20
2023-08-22T01:49:38.363Z,9.00
2023-08-22T01:52:07.236Z,9.10
2023-08-22T01:54:38.635Z,8.80
2023-08-22T01:57:07.514Z,9.80
2023-08-22T01:59:36.448Z,8.10
2023-08-22T02:02:05.396Z,7.90
2023-08-22T02:04:34.254Z,7.80
2023-08-22T02:07:04.638Z,8.10
2023-08-22T02:09:33.508Z,6.90
2023-08-22T02:12:03.392Z,7.70
2023-08-22T02:14:32.335Z,7.70
2023-08-22T02:17:02.044Z,8.30
2023-08-22T02:19:30.823Z,7.50
2023-08-22T02:21:59.705Z,8.20
2023-08-22T02:24:28.575Z,7.50
2023-08-22T02:26:57.865Z,9.10
2023-08-22T02:29:26.708Z,8.90
2023-08-22T02:31:55.954Z,8.60
2023-08-22T02:34:25.955Z,8.30
2023-08-22T02:36:54.749Z,8.00
2023-08-22T02:39:23.633Z,8.40
2023-08-22T02:41:52.732Z,8.70
2023-08-22T02:44:21.881Z,8.30
2023-08-22T02:46:50.960Z,9.20
2023-08-22T02:49:21.543Z,8.40
2023-08-22T02:51:50.243Z,8.50
2023-08-22T02:54:19.182Z,8.10
2023-08-22T02:56:48.025Z,8.00
2023-08-22T02:59:19.662Z,7.90
2023-08-22T03:01:49.386Z,7.30
2023-08-22T03:04:18.323Z,7.70
2023-08-22T03:06:47.439Z,7.90
2023-08-22T03:09:17.659Z,7.70
2023-08-22T03:11:46.391Z,7.80
2023-08-22T03:14:15.288Z,7.70
2023-08-22T03:16:44.129Z,7.60
2023-08-22T03:19:12.991Z,8.30
2023-08-22T03:21:42.931Z,8.60
2023-08-22T03:24:11.585Z,8.00
2023-08-22T03:26:40.644Z,9.20
2023-08-22T03:29:10.189Z,9.10
2023-08-22T03:31:39.332Z,8.70
2023-08-22T03:34:08.075Z,8.70
2023-08-22T03:36:37.068Z,8.20
2023-08-22T03:39:08.257Z,9.50
2023-08-22T03:41:37.084Z,9.60
2023-08-22T03:44:06.246Z,10.10
2023-08-22T03:46:39.268Z,11.10
2023-08-22T03:49:18.526Z,10.00
2023-08-22T03:51:47.439Z,11.40
2023-08-22T03:54:16.223Z,11.20
2023-08-22T03:56:45.127Z,11.80
2023-08-22T03:59:14.372Z,12.80
2023-08-22T04:01:43.100Z,11.70
2023-08-22T04:04:14.742Z,11.10
2023-08-22T04:09:11.799Z,10.60
2023-08-22T04:11:44.637Z,10.40
2023-08-22T04:14:13.384Z,10.20
2023-08-22T04:16:42.163Z,10.90
2023-08-22T04:19:11.135Z,10.50
2023-08-22T04:21:41.086Z,10.00
2023-08-22T04:24:10.512Z,10.30
2023-08-22T04:26:39.983Z,12.00
2023-08-22T04:29:09.021Z,10.50
2023-08-22T04:31:37.813Z,10.30
2023-08-22T04:34:07.608Z,10.10
2023-08-22T04:36:41.919Z,11.60
2023-08-22T04:39:11.084Z,10.30
2023-08-22T04:41:40.242Z,10.20
2023-08-22T04:44:27.843Z,10.20
2023-08-22T04:46:56.619Z,11.70
2023-08-22T04:49:26.096Z,11.00
2023-08-22T04:51:55.442Z,12.00
2023-08-22T04:54:24.408Z,13.00
2023-08-22T04:56:53.569Z,12.30
2023-08-22T04:59:23.786Z,12.70
2023-08-22T05:01:52.658Z,12.40
2023-08-22T05:04:22.351Z,12.80
2023-08-22T05:06:52.194Z,12.50
2023-08-22T05:09:21.398Z,11.30
2023-08-22T05:11:51.096Z,11.60
2023-08-22T05:14:21.033Z,11.30
2023-08-22T05:16:51.807Z,13.20
2023-08-22T05:19:20.591Z,14.40
2023-08-22T05:21:49.774Z,14.20
2023-08-22T05:24:19.221Z,13.30
2023-08-22T05:26:48.092Z,13.30
2023-08-22T05:29:19.839Z,12.70
2023-08-22T05:31:48.816Z,12.40
2023-08-22T05:34:17.583Z,13.20
2023-08-22T05:36:47.361Z,12.00
2023-08-22T05:39:16.111Z,11.00
2023-08-22T05:41:45.044Z,11.20
2023-08-22T05:44:14.827Z,11.10
2023-08-22T05:46:44.221Z,10.20
2023-08-22T05:49:12.972Z,11.90
2023-08-22T05:51:41.693Z,12.00
2023-08-22T05:54:10.610Z,11.70
2023-08-22T05:56:39.604Z,10.80
2023-08-22T05:59:08.626Z,10.70
2023-08-22T06:01:37.451Z,11.00
2023-08-22T06:04:08.372Z,10.10
2023-08-22T06:06:37.209Z,10.00
2023-08-22T06:09:06.224Z,9.50
2023-08-22T06:11:35.088Z,8.80
2023-08-22T06:14:04.510Z,9.30
2023-08-22T06:16:33.626Z,9.70
2023-08-22T06:19:02.938Z,9.60
2023-08-22T06:21:31.699Z,8.90
2023-08-22T06:24:00.588Z,9.10
2023-08-22T06:26:29.480Z,8.70
2023-08-22T06:28:58.641Z,8.90
2023-08-22T06:31:30.211Z,7.90
2023-08-22T06:33:59.267Z,8.60
2023-08-22T06:36:28.986Z,7.90
2023-08-22T06:38:58.382Z,9.20
2023-08-22T06:41:27.733Z,8.60
2023-08-22T06:43:56.557Z,9.10
2023-08-22T06:46:27.679Z,8.10
2023-08-22T06:51:24.535Z,6.90
2023-08-22T06:53:53.398Z,7.60
2023-08-22T06:56:22.058Z,7.40
2023-08-22T06:58:50.917Z,7.80
2023-08-22T07:01:19.815Z,7.50
2023-08-22T07:03:53.691Z,7.20
2023-08-22T07:06:31.249Z,7.80
2023-08-22T07:09:00.208Z,8.40
2023-08-22T07:11:28.923Z,7.20
2023-08-22T07:13:57.739Z,7.00
2023-08-22T07:16:26.622Z,8.00
2023-08-22T07:18:55.454Z,6.50
2023-08-22T07:21:24.491Z,7.40
2023-08-22T07:23:53.389Z,7.40
2023-08-22T07:26:22.281Z,9.20
2023-08-22T07:28:51.582Z,7.40
2023-08-22T07:31:20.519Z,7.00
2023-08-22T07:33:49.251Z,7.70
2023-08-22T07:36:22.013Z,6.90
2023-08-22T07:38:50.895Z,7.50
2023-08-22T07:41:19.687Z,7.40
2023-08-22T07:43:48.422Z,9.40
2023-08-22T07:46:17.455Z,8.90
2023-08-22T07:48:46.311Z,8.00
2023-08-22T07:51:15.033Z,8.00
2023-08-22T07:53:43.753Z,7.80
2023-08-22T07:56:12.668Z,9.10
2023-08-22T07:58:41.626Z,8.00
2023-08-22T08:01:12.969Z,7.30
2023-08-22T08:03:42.350Z,8.60
2023-08-22T08:06:11.673Z,8.90
2023-08-22T08:08:40.745Z,8.70
2023-08-22T08:11:09.450Z,7.30
2023-08-22T08:13:38.423Z,7.60
2023-08-22T08:16:08.018Z,7.00
2023-08-22T08:18:37.201Z,6.40
2023-08-22T08:21:06.117Z,6.90
2023-08-22T08:23:34.849Z,6.30
2023-08-22T08:26:57.232Z,6.50
2023-08-22T08:39:59.900Z,6.60
2023-08-22T08:43:12.391Z,5.90
2023-08-22T08:46:26.581Z,6.20
2023-08-22T08:49:20.705Z,6.50
2023-08-22T08:52:25.022Z,5.90
2023-08-22T08:55:39.012Z,6.60
2023-08-22T08:58:53.874Z,6.20
2023-08-22T09:02:15.167Z,5.40
2023-08-22T10:34:15.210Z,4.40
2023-08-22T10:51:04.012Z,4.30
2023-08-22T10:57:36.756Z,4.30
2023-08-22T11:07:02.378Z,4.10
2023-08-22T11:20:56.798Z,3.70
2023-08-22T11:24:23.861Z,3.70
2023-08-22T11:41:30.966Z,3.60
2023-08-22T11:44:59.487Z,3.70
2023-08-22T11:52:08.488Z,3.70
2023-08-22T11:58:45.809Z,3.80
2023-08-22T12:06:03.320Z,3.90
2023-08-22T12:09:37.677Z,3.70
2023-08-22T12:13:10.760Z,3.80
2023-08-22T12:20:05.235Z,5.00
2023-08-22T12:30:56.245Z,5.80
2023-08-22T12:38:17.735Z,6.20
2023-08-22T12:40:50.614Z,6.70
2023-08-22T12:47:11.026Z,5.80
2023-08-22T12:50:44.541Z,5.90
2023-08-22T12:54:29.640Z,5.90
2023-08-22T13:01:37.901Z,7.30
2023-08-22T13:09:08.657Z,6.30
2023-08-22T13:12:48.479Z,6.40
2023-08-22T13:16:38.038Z,7.30
2023-08-22T13:20:04.852Z,6.70
2023-08-22T13:23:29.424Z,7.90
2023-08-22T13:26:56.078Z,9.10
2023-08-22T13:30:27.283Z,6.90
2023-08-22T13:55:34.962Z,7.30
2023-08-22T13:58:06.485Z,7.20
2023-08-22T14:00:50.241Z,7.90
2023-08-22T14:03:58.911Z,6.70
2023-08-22T14:07:04.016Z,5.90
2023-08-22T14:10:22.058Z,7.80
2023-08-22T14:13:48.098Z,6.60
2023-08-22T14:27:27.583Z,6.30
2023-08-22T14:29:59.939Z,6.60
2023-08-22T14:32:33.970Z,6.60
2023-08-22T14:35:42.778Z,6.50
2023-08-22T14:38:41.937Z,6.40
2023-08-22T14:41:14.201Z,5.80
2023-08-22T14:43:46.126Z,6.20
2023-08-22T14:46:18.049Z,6.10
2023-08-22T14:48:50.037Z,6.40
2023-08-22T14:51:22.016Z,6.50
2023-08-22T14:53:54.253Z,6.20
2023-08-22T14:56:36.202Z,6.00
2023-08-22T15:02:00.578Z,6.10
2023-08-22T15:04:37.713Z,6.10
2023-08-22T15:10:04.841Z,5.70
2023-08-22T15:12:37.732Z,6.90
2023-08-22T15:18:02.692Z,5.80
2023-08-22T15:20:36.737Z,5.60
2023-08-22T15:23:10.306Z,5.50
2023-08-22T15:25:42.296Z,6.10
2023-08-22T15:28:14.315Z,5.90
2023-08-22T15:30:46.373Z,6.90
2023-08-22T15:34:04.659Z,6.20
2023-08-22T15:41:10.098Z,6.60
2023-08-22T15:44:30.768Z,7.40
2023-08-22T15:47:02.786Z,6.40
2023-08-22T15:49:34.722Z,5.90
2023-08-22T16:00:21.937Z,5.80
2023-08-22T16:03:39.731Z,6.40
2023-08-22T16:10:52.082Z,5.80
2023-08-22T16:17:22.241Z,5.80
2023-08-22T16:20:46.224Z,5.60
2023-08-22T16:23:24.015Z,6.20
2023-08-22T16:26:18.651Z,5.70
2023-08-22T16:28:57.339Z,6.40
2023-08-22T16:31:31.651Z,6.60
2023-08-22T16:34:05.063Z,6.00
2023-08-22T16:36:37.536Z,6.20
2023-08-22T16:39:11.223Z,6.30
2023-08-22T16:41:43.249Z,6.10
2023-08-22T16:44:15.364Z,6.60
2023-08-22T16:46:57.558Z,6.40
2023-08-22T16:49:29.618Z,6.70
2023-08-22T16:52:29.787Z,6.00
2023-08-22T16:55:42.871Z,6.00
